Time;durP1;ratioP1;P1;durP2;ratioP2;P2;SDS_P1;SDS_P2;PMS_P1;PMS_P2;Temp;Humidity;BMP_temperature;BMP_pressure;BME280_temperature;BME280_humidity;BME280_pressure;Samples;Min_cycle;Max_cycle;Signal;HPM_P1;HPM_P2
2023/04/12 00:02:23;;;;;;;5.47;1.50;;;11.50;99.90;;;;;;5004157;28;20289;-68
2023/04/12 00:04:54;;;;;;;3.23;1.37;;;11.50;99.90;;;;;;4987903;28;20221;-68
2023/04/12 00:07:22;;;;;;;2.30;0.90;;;11.60;99.90;;;;;;5003167;28;20217;-68
2023/04/12 00:09:47;;;;;;;5.80;1.40;;;11.60;99.90;;;;;;4991949;28;20544;-69
2023/04/12 00:12:13;;;;;;;2.83;1.50;;;11.60;99.90;;;;;;5011341;28;20548;-70
2023/04/12 00:14:39;;;;;;;1.27;1.20;;;11.50;99.90;;;;;;5000765;28;20297;-69
2023/04/12 00:17:05;;;;;;;2.50;1.20;;;11.50;99.90;;;;;;5009167;28;20206;-69
2023/04/12 00:19:30;;;;;;;3.93;1.50;;;11.50;99.90;;;;;;5009183;28;20237;-69
2023/04/12 00:21:56;;;;;;;2.50;1.33;;;11.40;99.90;;;;;;5008044;28;20540;-68
2023/04/12 00:24:22;;;;;;;1.30;1.03;;;11.20;99.90;;;;;;5010165;28;20216;-68
2023/04/12 00:26:47;;;;;;;1.47;1.37;;;11.20;99.90;;;;;;5009059;28;20479;-69
2023/04/12 00:29:15;;;;;;;1.20;1.10;;;11.30;99.90;;;;;;5006683;28;20316;-70
2023/04/12 00:31:40;;;;;;;2.50;1.20;;;11.30;99.90;;;;;;4988651;28;20258;-67
2023/04/12 00:34:06;;;;;;;2.17;1.20;;;11.20;99.90;;;;;;5009954;28;20480;-68
2023/04/12 00:36:32;;;;;;;3.00;1.47;;;11.20;99.90;;;;;;5007699;28;20210;-69
2023/04/12 00:38:57;;;;;;;2.77;1.13;;;11.20;99.90;;;;;;5008724;28;20316;-69
2023/04/12 00:41:24;;;;;;;2.43;1.20;;;11.10;99.90;;;;;;5004872;28;20218;-69
2023/04/12 00:43:50;;;;;;;3.90;1.10;;;11.10;99.90;;;;;;4992361;28;20232;-69
2023/04/12 00:46:18;;;;;;;4.63;1.63;;;11.10;99.90;;;;;;4988499;28;20469;-69
2023/04/12 00:48:46;;;;;;;1.93;1.10;;;11.20;99.90;;;;;;5009492;28;20246;-67
2023/04/12 00:51:12;;;;;;;3.50;1.33;;;11.20;99.90;;;;;;4989871;28;20516;-68
2023/04/12 00:53:39;;;;;;;6.10;1.20;;;11.00;99.90;;;;;;5008936;28;20958;-69
2023/04/12 00:56:06;;;;;;;4.80;1.17;;;10.80;99.90;;;;;;5008991;28;20218;-69
2023/04/12 00:58:32;;;;;;;4.43;1.20;;;10.60;99.90;;;;;;5005296;28;20464;-68
2023/04/12 01:00:59;;;;;;;3.63;1.40;;;10.50;99.90;;;;;;5008410;28;20507;-69
2023/04/12 01:03:26;;;;;;;4.47;1.43;;;10.60;99.90;;;;;;5008554;28;20220;-69
2023/04/12 01:06:39;;;;;;;3.07;1.60;;;10.60;99.90;;;;;;5009012;28;20539;-69
2023/04/12 01:09:29;;;;;;;8.50;1.73;;;10.60;99.90;;;;;;4975267;28;20458;-68
2023/04/12 01:12:32;;;;;;;1.33;1.23;;;10.70;99.90;;;;;;5010483;28;20831;-69
2023/04/12 01:15:09;;;;;;;4.13;1.97;;;10.90;99.90;;;;;;5003600;28;20448;-69
2023/04/12 01:17:44;;;;;;;2.70;1.17;;;11.00;99.90;;;;;;4994182;28;21503;-68
2023/04/12 01:20:15;;;;;;;2.70;1.37;;;11.20;99.90;;;;;;5002086;28;20499;-68
2023/04/12 01:22:41;;;;;;;4.83;1.70;;;11.20;99.90;;;;;;5012140;28;20855;-68
2023/04/12 01:25:23;;;;;;;2.33;1.47;;;11.20;99.90;;;;;;5010171;28;20456;-68
2023/04/12 01:28:07;;;;;;;2.30;0.97;;;11.00;99.90;;;;;;4988844;28;20311;-68
2023/04/12 01:30:33;;;;;;;3.33;1.40;;;11.10;99.90;;;;;;4988335;28;20501;-70
2023/04/12 01:33:02;;;;;;;3.93;1.50;;;11.20;99.90;;;;;;5008407;28;21414;-67
2023/04/12 01:35:30;;;;;;;3.87;1.20;;;11.20;99.90;;;;;;5009702;28;20225;-69
2023/04/12 01:38:00;;;;;;;1.67;1.20;;;11.20;99.90;;;;;;5005103;28;20476;-69
2023/04/12 01:40:27;;;;;;;1.57;1.33;;;11.10;99.90;;;;;;4991946;28;20476;-69
2023/04/12 01:43:07;;;;;;;2.13;1.17;;;11.10;99.90;;;;;;5007733;28;20496;-68
2023/04/12 01:45:33;;;;;;;2.53;1.63;;;11.10;99.90;;;;;;5008191;28;20568;-68
2023/04/12 01:48:00;;;;;;;1.20;1.10;;;11.10;99.90;;;;;;5003991;28;21291;-69
2023/04/12 01:50:43;;;;;;;1.57;1.13;;;11.10;99.90;;;;;;5008031;28;20789;-68
2023/04/12 01:53:12;;;;;;;1.83;1.30;;;11.00;99.90;;;;;;5005230;28;20475;-68
2023/04/12 01:55:41;;;;;;;2.20;1.20;;;11.00;99.90;;;;;;5009259;28;20469;-68
2023/04/12 01:58:10;;;;;;;1.93;1.00;;;11.10;99.90;;;;;;4991819;28;20489;-68
2023/04/12 02:00:37;;;;;;;1.73;1.10;;;11.10;99.90;;;;;;4999151;28;20536;-68
2023/04/12 02:03:04;;;;;;;1.97;1.17;;;11.00;99.90;;;;;;4992271;28;20497;-69
2023/04/12 02:05:32;;;;;;;1.67;1.10;;;11.10;99.90;;;;;;4987078;28;20466;-68
2023/04/12 02:07:58;;;;;;;1.37;1.00;;;11.10;99.90;;;;;;5006730;28;20453;-69
2023/04/12 02:10:31;;;;;;;2.40;1.03;;;11.10;99.90;;;;;;5007380;28;20469;-68
2023/04/12 02:13:00;;;;;;;1.97;1.00;;;11.10;99.90;;;;;;5008722;28;20527;-69
2023/04/12 02:15:29;;;;;;;1.80;1.00;;;11.10;99.90;;;;;;5007613;28;20544;-68
2023/04/12 02:17:55;;;;;;;2.90;1.70;;;11.10;99.90;;;;;;4998351;28;20468;-68
2023/04/12 02:20:23;;;;;;;1.30;1.20;;;11.10;99.90;;;;;;4987713;28;20469;-69
2023/04/12 02:22:49;;;;;;;1.23;1.13;;;11.10;99.90;;;;;;5002959;28;20476;-69
2023/04/12 02:25:18;;;;;;;1.00;0.90;;;11.00;99.90;;;;;;5001441;28;20465;-69
2023/04/12 02:27:45;;;;;;;3.73;1.17;;;11.00;99.90;;;;;;5004450;28;20479;-68
2023/04/12 02:30:12;;;;;;;1.57;1.47;;;11.00;99.90;;;;;;5004426;28;20498;-68
2023/04/12 02:32:45;;;;;;;1.80;1.07;;;11.00;99.90;;;;;;5006729;28;20487;-67
2023/04/12 02:35:25;;;;;;;2.47;1.67;;;11.00;99.90;;;;;;5005511;28;20791;-69
2023/04/12 02:37:56;;;;;;;1.17;1.07;;;11.00;99.90;;;;;;5007291;28;20457;-69
2023/04/12 02:40:26;;;;;;;2.63;1.20;;;10.90;99.90;;;;;;4991524;28;20453;-68
2023/04/12 02:42:53;;;;;;;4.80;1.43;;;10.80;99.90;;;;;;5007190;28;20464;-69
2023/04/12 02:45:20;;;;;;;3.80;1.30;;;10.60;99.90;;;;;;5007135;28;20829;-69
2023/04/12 02:47:45;;;;;;;2.37;1.30;;;10.50;99.90;;;;;;5006853;28;20457;-69
2023/04/12 02:50:11;;;;;;;3.37;1.40;;;10.50;99.90;;;;;;5006943;28;20229;-69
2023/04/12 02:52:47;;;;;;;2.07;1.63;;;10.60;99.90;;;;;;4992401;28;20222;-69
2023/04/12 02:55:13;;;;;;;0.80;0.80;;;10.60;99.90;;;;;;4989244;28;20473;-68
2023/04/12 02:57:40;;;;;;;3.80;1.20;;;10.60;99.90;;;;;;4987221;28;20568;-68
2023/04/12 03:00:14;;;;;;;1.60;1.40;;;10.60;99.90;;;;;;4989270;28;20536;-69
2023/04/12 03:02:43;;;;;;;2.90;1.27;;;10.40;99.90;;;;;;4986513;28;20979;-69
2023/04/12 03:05:21;;;;;;;1.50;1.17;;;10.40;99.90;;;;;;4986766;28;20859;-69
2023/04/12 03:07:47;;;;;;;1.23;1.00;;;10.40;99.90;;;;;;5006765;28;20443;-69
2023/04/12 03:10:15;;;;;;;1.87;1.10;;;10.40;99.90;;;;;;4992246;28;20223;-69
2023/04/12 03:12:50;;;;;;;1.77;1.00;;;10.40;99.90;;;;;;4985207;28;20814;-69
2023/04/12 03:15:17;;;;;;;1.20;1.10;;;10.30;99.90;;;;;;5006855;28;21036;-70
2023/04/12 03:17:47;;;;;;;1.73;0.97;;;10.40;99.90;;;;;;5006410;28;20448;-69
2023/04/12 03:20:14;;;;;;;3.30;1.60;;;10.20;99.90;;;;;;5005839;28;20990;-69
2023/04/12 03:22:46;;;;;;;2.60;0.90;;;10.30;99.90;;;;;;5004771;28;20449;-69
2023/04/12 03:25:12;;;;;;;3.77;1.57;;;10.40;99.90;;;;;;5008077;28;20471;-70
2023/04/12 03:27:43;;;;;;;1.10;0.97;;;10.40;99.90;;;;;;4990931;28;20225;-69
2023/04/12 03:30:13;;;;;;;2.07;1.10;;;10.40;99.90;;;;;;5006966;28;20467;-69
2023/04/12 03:32:41;;;;;;;1.43;1.10;;;10.50;99.90;;;;;;4996795;28;20528;-67
2023/04/12 03:35:09;;;;;;;4.93;1.10;;;10.60;99.90;;;;;;4997162;28;20461;-69
2023/04/12 03:37:39;;;;;;;1.37;0.83;;;10.60;99.90;;;;;;4998518;28;20447;-68
2023/04/12 03:40:06;;;;;;;0.87;0.87;;;10.60;99.90;;;;;;4989472;28;20444;-68
2023/04/12 03:42:32;;;;;;;12.10;1.43;;;10.60;99.90;;;;;;4988541;28;20464;-69
2023/04/12 03:45:00;;;;;;;1.07;1.07;;;10.60;99.90;;;;;;5010448;28;20464;-68
2023/04/12 03:47:26;;;;;;;1.30;1.07;;;10.50;99.90;;;;;;4999614;28;20445;-68
2023/04/12 03:49:54;;;;;;;3.80;1.50;;;10.50;99.90;;;;;;5006190;28;20471;-68
2023/04/12 03:52:21;;;;;;;1.83;1.13;;;10.50;99.90;;;;;;5007204;28;20457;-69
2023/04/12 03:54:46;;;;;;;1.70;1.60;;;10.50;99.90;;;;;;4991595;28;20456;-69
2023/04/12 03:57:18;;;;;;;1.70;1.43;;;10.50;99.90;;;;;;5010099;28;20461;-68
2023/04/12 03:59:47;;;;;;;2.60;1.07;;;10.40;99.90;;;;;;5008356;28;20487;-69
2023/04/12 04:02:13;;;;;;;1.73;1.63;;;10.50;99.90;;;;;;5010232;28;20492;-69
2023/04/12 04:04:45;;;;;;;7.63;1.27;;;10.50;99.90;;;;;;5005793;28;20459;-69
2023/04/12 04:07:14;;;;;;;1.70;1.60;;;10.50;99.90;;;;;;5010458;28;20453;-69
2023/04/12 04:09:43;;;;;;;1.93;1.77;;;10.50;99.90;;;;;;4985607;28;20520;-69
2023/04/12 04:12:10;;;;;;;1.83;1.73;;;10.50;99.90;;;;;;5010449;28;21070;-68
2023/04/12 04:14:38;;;;;;;4.33;1.73;;;10.40;99.90;;;;;;4992145;28;20884;-69
2023/04/12 04:17:07;;;;;;;2.30;1.43;;;10.50;99.90;;;;;;4993632;28;20487;-68
2023/04/12 04:19:33;;;;;;;1.63;1.53;;;10.40;99.90;;;;;;5005463;28;20560;-69
2023/04/12 04:22:00;;;;;;;3.40;1.53;;;10.40;99.90;;;;;;4992919;28;20464;-69
2023/04/12 04:24:26;;;;;;;3.40;1.93;;;10.40;99.90;;;;;;4993158;28;20469;-69
2023/04/12 04:26:57;;;;;;;1.90;1.80;;;10.30;99.90;;;;;;5005191;28;20892;-68
2023/04/12 04:29:27;;;;;;;1.80;1.70;;;10.20;99.90;;;;;;5008600;28;20571;-68
2023/04/12 04:31:53;;;;;;;1.80;1.70;;;10.20;99.90;;;;;;5005325;28;20492;-69
2023/04/12 04:34:21;;;;;;;2.67;1.67;;;10.20;99.90;;;;;;4988061;28;20525;-68
2023/04/12 04:36:47;;;;;;;2.37;2.07;;;10.20;99.90;;;;;;5021435;28;20454;-68
2023/04/12 04:39:21;;;;;;;2.60;1.57;;;10.10;99.90;;;;;;4999189;28;20464;-69
2023/04/12 04:41:53;;;;;;;1.63;1.53;;;10.10;99.90;;;;;;4996303;28;20446;-68
2023/04/12 04:44:26;;;;;;;2.50;2.20;;;10.10;99.90;;;;;;5010014;28;20449;-69
2023/04/12 04:46:55;;;;;;;1.73;1.60;;;10.00;99.90;;;;;;5008824;28;20568;-68
2023/04/12 04:49:21;;;;;;;2.07;1.70;;;10.00;99.90;;;;;;4992759;28;20457;-69
2023/04/12 04:51:47;;;;;;;6.00;2.00;;;10.10;99.90;;;;;;4988655;28;20467;-69
2023/04/12 04:54:13;;;;;;;1.97;1.83;;;10.20;99.90;;;;;;5008078;28;20221;-69
2023/04/12 04:56:40;;;;;;;3.87;2.00;;;10.20;99.90;;;;;;5008813;28;20459;-68
2023/04/12 04:59:07;;;;;;;3.17;2.20;;;10.10;99.90;;;;;;5009023;28;20524;-68
2023/04/12 05:01:35;;;;;;;4.53;2.33;;;10.00;99.90;;;;;;5004424;28;20461;-68
2023/04/12 05:04:02;;;;;;;2.83;2.60;;;9.90;99.90;;;;;;5008522;28;20472;-69
2023/04/12 05:06:27;;;;;;;7.33;2.70;;;10.00;99.90;;;;;;4985995;28;20939;-68
2023/04/12 05:08:55;;;;;;;5.03;3.33;;;9.90;99.90;;;;;;5008699;28;20792;-69
2023/04/12 05:11:22;;;;;;;3.47;3.17;;;9.80;99.90;;;;;;4989106;28;20476;-69
2023/04/12 05:13:48;;;;;;;3.67;2.97;;;9.70;99.90;;;;;;5006339;28;20490;-69
2023/04/12 05:16:14;;;;;;;2.43;2.20;;;9.80;99.90;;;;;;5006852;28;20524;-68
2023/04/12 05:18:40;;;;;;;3.73;2.70;;;9.70;99.90;;;;;;5007238;28;20218;-68
2023/04/12 05:21:06;;;;;;;4.60;3.03;;;9.70;99.90;;;;;;5010391;28;20523;-68
2023/04/12 05:23:36;;;;;;;3.43;2.50;;;9.70;99.90;;;;;;5003158;28;20672;-69
2023/04/12 05:26:02;;;;;;;2.40;2.20;;;9.80;99.90;;;;;;5005736;28;20494;-68
2023/04/12 05:28:28;;;;;;;3.07;2.30;;;9.70;99.90;;;;;;4968643;28;20533;-69
2023/04/12 05:30:54;;;;;;;2.73;2.53;;;9.70;99.90;;;;;;5002572;28;20473;-69
2023/04/12 05:33:24;;;;;;;8.17;2.87;;;9.80;99.90;;;;;;5003197;28;20217;-69
2023/04/12 05:35:50;;;;;;;5.37;2.73;;;9.70;99.90;;;;;;5006140;28;20458;-69
2023/04/12 05:38:15;;;;;;;2.73;2.53;;;9.70;99.90;;;;;;5007674;28;20221;-69
2023/04/12 05:40:44;;;;;;;3.23;2.93;;;9.60;99.90;;;;;;4991528;28;20304;-69
2023/04/12 05:43:12;;;;;;;5.90;2.70;;;9.60;99.90;;;;;;5008613;28;20461;-69
2023/04/12 05:45:40;;;;;;;3.03;2.37;;;9.50;99.90;;;;;;5009201;28;20437;-69
2023/04/12 05:48:06;;;;;;;3.00;2.50;;;9.60;99.90;;;;;;5008008;28;20857;-69
2023/04/12 05:50:33;;;;;;;3.03;2.40;;;9.50;99.90;;;;;;5006893;28;20469;-70
2023/04/12 05:53:02;;;;;;;2.73;2.50;;;9.50;99.90;;;;;;5007920;28;20455;-70
2023/04/12 05:55:30;;;;;;;3.00;2.03;;;9.30;99.90;;;;;;5008040;28;20564;-69
2023/04/12 05:57:57;;;;;;;2.83;1.97;;;9.40;99.90;;;;;;5000801;28;20468;-69
2023/04/12 06:00:23;;;;;;;2.50;1.93;;;9.40;99.90;;;;;;5005167;28;20209;-69
2023/04/12 06:02:49;;;;;;;2.20;1.60;;;9.40;99.90;;;;;;5005866;28;20458;-70
2023/04/12 06:05:18;;;;;;;2.13;1.93;;;9.50;99.90;;;;;;5008476;28;20252;-69
2023/04/12 06:07:45;;;;;;;2.10;1.90;;;9.40;99.90;;;;;;4991044;28;20451;-69
2023/04/12 06:10:15;;;;;;;2.63;2.13;;;9.40;99.90;;;;;;4994866;28;20840;-69
2023/04/12 06:12:41;;;;;;;2.37;2.17;;;9.50;99.90;;;;;;5001224;28;20464;-68
2023/04/12 06:15:07;;;;;;;2.13;1.63;;;9.40;99.90;;;;;;5008231;28;20455;-69
2023/04/12 06:17:33;;;;;;;2.03;1.83;;;9.40;99.90;;;;;;4985911;28;20454;-70
2023/04/12 06:19:59;;;;;;;2.50;2.03;;;9.30;99.90;;;;;;4988561;28;20222;-69
2023/04/12 06:22:25;;;;;;;2.27;1.60;;;9.40;99.90;;;;;;5007752;28;20459;-69
2023/04/12 06:24:51;;;;;;;1.80;1.70;;;9.50;99.90;;;;;;4990517;28;20224;-70
2023/04/12 06:27:17;;;;;;;2.57;2.07;;;9.60;99.90;;;;;;5001351;28;20289;-71
2023/04/12 06:29:43;;;;;;;2.50;2.30;;;9.40;99.90;;;;;;5007897;28;20209;-70
2023/04/12 06:32:09;;;;;;;2.93;1.60;;;9.30;99.90;;;;;;4981118;28;20236;-70
2023/04/12 06:34:35;;;;;;;2.60;2.17;;;9.30;99.90;;;;;;5004615;28;20535;-70
2023/04/12 06:37:04;;;;;;;1.80;1.70;;;9.30;99.90;;;;;;5007731;28;20218;-70
2023/04/12 06:39:30;;;;;;;2.40;1.80;;;9.40;99.90;;;;;;5007167;28;20467;-70
2023/04/12 06:41:56;;;;;;;2.10;1.90;;;9.50;99.90;;;;;;5005373;28;20229;-70
2023/04/12 06:44:22;;;;;;;3.63;2.13;;;9.50;99.90;;;;;;4991129;28;20213;-70
2023/04/12 06:46:48;;;;;;;1.83;1.73;;;9.50;99.90;;;;;;5007110;28;20455;-70
2023/04/12 06:49:13;;;;;;;2.77;1.87;;;9.50;99.90;;;;;;5004743;28;20472;-69
2023/04/12 06:51:39;;;;;;;2.20;1.53;;;9.50;99.90;;;;;;5008759;28;20301;-70
2023/04/12 06:54:04;;;;;;;4.73;2.10;;;9.50;99.90;;;;;;4990570;28;20216;-70
2023/04/12 06:56:30;;;;;;;2.33;1.50;;;9.40;99.90;;;;;;5018986;28;20232;-69
2023/04/12 06:58:57;;;;;;;1.67;1.57;;;9.50;99.90;;;;;;5007015;28;20238;-70
2023/04/12 07:01:23;;;;;;;1.70;1.53;;;9.50;99.90;;;;;;5006791;28;20220;-70
2023/04/12 07:03:49;;;;;;;3.17;2.37;;;9.40;99.90;;;;;;5007892;28;20460;-70
2023/04/12 07:06:14;;;;;;;3.20;2.33;;;9.50;99.90;;;;;;5002689;28;20268;-70
2023/04/12 07:08:40;;;;;;;3.20;2.03;;;9.50;99.90;;;;;;5007445;28;20275;-69
2023/04/12 07:11:06;;;;;;;2.20;2.00;;;9.40;99.90;;;;;;5003557;28;20309;-70
2023/04/12 07:13:31;;;;;;;3.47;2.40;;;9.40;99.90;;;;;;5012117;28;20675;-69
2023/04/12 07:15:57;;;;;;;2.00;1.90;;;9.40;99.90;;;;;;5005220;28;20369;-70
2023/04/12 07:18:23;;;;;;;3.00;2.10;;;9.40;99.90;;;;;;5007251;28;20275;-70
2023/04/12 07:20:52;;;;;;;4.47;2.10;;;9.40;99.90;;;;;;5009774;28;20453;-70
2023/04/12 07:23:17;;;;;;;2.80;1.90;;;9.40;99.90;;;;;;5012433;28;20229;-70
2023/04/12 07:25:43;;;;;;;1.93;1.50;;;9.40;99.90;;;;;;5010869;28;21068;-70
2023/04/12 07:28:09;;;;;;;2.53;1.90;;;9.50;99.90;;;;;;4987431;28;20238;-70
2023/04/12 07:30:35;;;;;;;2.23;2.13;;;9.40;99.90;;;;;;5003089;28;20225;-70
2023/04/12 07:33:04;;;;;;;4.60;2.40;;;9.40;99.90;;;;;;5010463;28;20217;-70
2023/04/12 07:35:33;;;;;;;2.50;2.20;;;9.40;99.90;;;;;;5009860;28;20209;-70
2023/04/12 07:38:00;;;;;;;1.63;1.53;;;9.40;99.90;;;;;;5010481;28;20855;-70
2023/04/12 07:40:25;;;;;;;3.50;2.10;;;9.50;99.90;;;;;;5010284;28;20539;-70
2023/04/12 07:42:51;;;;;;;1.57;1.47;;;9.50;99.90;;;;;;5010060;28;20617;-70
2023/04/12 07:45:19;;;;;;;2.50;1.87;;;9.50;99.90;;;;;;5006357;28;20233;-70
2023/04/12 07:47:45;;;;;;;4.33;1.80;;;9.60;99.90;;;;;;4987250;28;20301;-69
2023/04/12 07:50:10;;;;;;;1.93;1.83;;;9.60;99.90;;;;;;5012034;28;20874;-70
2023/04/12 07:52:36;;;;;;;1.93;1.73;;;9.60;99.90;;;;;;5008975;28;20257;-70
2023/04/12 07:55:02;;;;;;;1.90;1.57;;;9.60;99.90;;;;;;5011338;28;20202;-70
2023/04/12 07:57:27;;;;;;;2.00;1.63;;;9.60;99.90;;;;;;5011449;28;20675;-70
2023/04/12 07:59:53;;;;;;;1.60;1.50;;;9.60;99.90;;;;;;5013308;28;20222;-70
2023/04/12 08:02:28;;;;;;;2.10;1.90;;;9.70;99.90;;;;;;5007968;28;20260;-70
2023/04/12 08:04:53;;;;;;;2.20;2.00;;;9.60;99.90;;;;;;5004793;28;20225;-70
2023/04/12 08:07:21;;;;;;;1.93;1.83;;;9.60;99.90;;;;;;5009371;28;20467;-69
2023/04/12 08:09:47;;;;;;;2.70;1.90;;;9.60;99.90;;;;;;4990983;28;20249;-70
2023/04/12 08:12:14;;;;;;;1.97;1.80;;;9.50;99.90;;;;;;5008518;28;20469;-70
2023/04/12 08:14:40;;;;;;;2.30;1.90;;;9.50;99.90;;;;;;5009012;28;20455;-69
2023/04/12 08:17:05;;;;;;;2.83;2.13;;;9.50;99.90;;;;;;5009701;28;20471;-70
2023/04/12 08:19:31;;;;;;;2.30;2.10;;;9.60;99.90;;;;;;5008386;28;20981;-69
2023/04/12 08:21:57;;;;;;;5.10;2.77;;;9.70;99.90;;;;;;5004315;28;20214;-70
2023/04/12 08:24:22;;;;;;;2.63;2.03;;;9.70;99.90;;;;;;5009475;28;20228;-70
2023/04/12 08:26:50;;;;;;;2.17;2.03;;;9.70;99.90;;;;;;5007317;28;20233;-67
2023/04/12 08:29:16;;;;;;;1.90;1.80;;;9.70;99.90;;;;;;5009679;28;20226;-69
2023/04/12 08:31:42;;;;;;;1.90;1.70;;;9.70;99.90;;;;;;5008490;28;20522;-69
2023/04/12 08:34:07;;;;;;;2.30;2.10;;;9.60;99.90;;;;;;4991371;28;20611;-70
2023/04/12 08:36:33;;;;;;;2.60;2.30;;;9.60;99.90;;;;;;5006429;28;20253;-70
2023/04/12 08:38:59;;;;;;;2.23;2.03;;;9.70;99.90;;;;;;5007451;28;20222;-69
2023/04/12 08:41:26;;;;;;;3.20;1.93;;;9.80;99.90;;;;;;5005734;28;20288;-69
2023/04/12 08:43:54;;;;;;;2.20;2.00;;;9.80;99.90;;;;;;5009408;28;20449;-70
2023/04/12 08:46:20;;;;;;;2.17;2.00;;;9.70;99.90;;;;;;5010668;28;20472;-70
2023/04/12 08:48:53;;;;;;;3.40;2.37;;;9.80;99.90;;;;;;5010064;28;20473;-69
2023/04/12 08:51:20;;;;;;;1.87;1.77;;;9.80;99.90;;;;;;5009772;28;20476;-70
2023/04/12 08:53:46;;;;;;;2.00;1.90;;;9.80;99.90;;;;;;5009010;28;20462;-69
2023/04/12 08:56:13;;;;;;;3.37;2.17;;;9.80;99.90;;;;;;5008517;28;20480;-69
2023/04/12 08:58:40;;;;;;;4.30;2.07;;;9.90;99.90;;;;;;5006374;28;20837;-70
2023/04/12 09:01:14;;;;;;;3.93;1.70;;;9.90;99.90;;;;;;5008910;28;20457;-69
2023/04/12 09:03:43;;;;;;;2.40;2.20;;;10.00;99.90;;;;;;5001348;28;20457;-68
2023/04/12 09:06:09;;;;;;;3.13;2.00;;;9.90;99.90;;;;;;5007974;28;20527;-70
2023/04/12 09:08:35;;;;;;;2.33;1.77;;;9.90;99.90;;;;;;5006358;28;20472;-69
2023/04/12 09:11:19;;;;;;;2.13;2.00;;;9.90;99.90;;;;;;5005178;28;20481;-70
2023/04/12 09:13:45;;;;;;;2.10;1.63;;;10.00;99.90;;;;;;5007773;28;20453;-68
2023/04/12 09:16:11;;;;;;;2.77;1.70;;;9.90;99.90;;;;;;5009522;28;20539;-69
2023/04/12 09:19:01;;;;;;;2.40;2.20;;;9.90;99.90;;;;;;5008108;28;20236;-68
2023/04/12 09:21:27;;;;;;;2.10;2.00;;;10.00;99.90;;;;;;5007785;28;20480;-69
2023/04/12 09:24:12;;;;;;;1.93;1.67;;;10.10;99.90;;;;;;5008787;28;20453;-69
2023/04/12 09:26:39;;;;;;;2.10;2.00;;;10.10;99.90;;;;;;5008355;28;20224;-70
2023/04/12 09:29:04;;;;;;;2.10;2.00;;;10.10;99.90;;;;;;5006267;28;20471;-70
2023/04/12 09:31:30;;;;;;;2.10;1.97;;;10.10;99.90;;;;;;5008540;28;20477;-70
2023/04/12 09:34:07;;;;;;;3.07;2.50;;;10.10;99.90;;;;;;5008492;28;20727;-70
2023/04/12 09:36:40;;;;;;;3.50;2.23;;;10.20;99.90;;;;;;5003893;28;20869;-70
2023/04/12 09:39:06;;;;;;;2.27;2.07;;;10.20;99.90;;;;;;5005495;28;20465;-70
2023/04/12 09:41:32;;;;;;;2.93;2.20;;;10.20;99.90;;;;;;5009258;28;20558;-70
2023/04/12 09:44:01;;;;;;;2.53;2.33;;;10.20;99.90;;;;;;5009519;28;20479;-70
2023/04/12 09:46:27;;;;;;;2.60;2.40;;;10.30;99.90;;;;;;5009564;28;20457;-69
2023/04/12 09:48:57;;;;;;;2.73;1.90;;;10.30;99.90;;;;;;5008447;28;20971;-69
2023/04/12 09:51:28;;;;;;;2.40;1.90;;;10.40;99.90;;;;;;5005705;28;20222;-70
2023/04/12 09:53:58;;;;;;;2.27;2.03;;;10.40;99.90;;;;;;5007851;28;20472;-70
2023/04/12 09:56:26;;;;;;;3.07;2.17;;;10.40;99.90;;;;;;5002669;28;20489;-70
2023/04/12 09:58:52;;;;;;;2.17;1.97;;;10.40;99.90;;;;;;5002980;28;20508;-69
2023/04/12 10:01:21;;;;;;;3.13;1.60;;;10.50;99.90;;;;;;5008129;28;20536;-71
2023/04/12 10:03:47;;;;;;;3.57;2.00;;;10.50;99.90;;;;;;5006994;28;20468;-71
2023/04/12 10:06:14;;;;;;;3.67;2.47;;;10.50;99.90;;;;;;5009435;28;20828;-70
2023/04/12 10:08:40;;;;;;;3.80;2.00;;;10.50;99.90;;;;;;5007270;28;20456;-68
2023/04/12 10:11:06;;;;;;;2.70;1.97;;;10.60;99.90;;;;;;5009408;28;20496;-69
2023/04/12 10:13:32;;;;;;;1.97;1.70;;;10.50;99.90;;;;;;5003129;28;20473;-70
2023/04/12 10:15:59;;;;;;;2.40;2.13;;;10.60;99.90;;;;;;4999387;28;20222;-70
2023/04/12 10:18:26;;;;;;;1.80;1.70;;;10.60;99.90;;;;;;5007384;28;20551;-70
2023/04/12 10:20:52;;;;;;;2.87;2.57;;;10.70;99.90;;;;;;5007459;28;20465;-70
2023/04/12 10:23:19;;;;;;;5.60;2.87;;;10.70;99.90;;;;;;5007619;28;20465;-70
2023/04/12 10:25:46;;;;;;;3.03;2.13;;;10.70;99.90;;;;;;5008024;28;20457;-70
2023/04/12 10:28:21;;;;;;;2.73;2.17;;;10.80;99.90;;;;;;5004813;28;20222;-70
2023/04/12 10:30:49;;;;;;;3.23;1.67;;;10.80;99.90;;;;;;5005043;28;20555;-70
2023/04/12 10:33:17;;;;;;;2.00;1.60;;;10.90;99.90;;;;;;5007794;28;20468;-69
2023/04/12 10:36:11;;;;;;;1.67;1.47;;;10.90;99.90;;;;;;5010817;28;20445;-70
2023/04/12 10:38:47;;;;;;;1.80;1.50;;;11.00;99.90;;;;;;5006002;28;20523;-68
2023/04/12 10:41:18;;;;;;;1.43;1.20;;;11.00;99.90;;;;;;4988717;28;20499;-70
2023/04/12 10:43:48;;;;;;;1.60;1.17;;;11.00;99.90;;;;;;5000229;28;20536;-70
2023/04/12 10:46:39;;;;;;;1.53;1.23;;;11.10;99.90;;;;;;5010994;28;20457;-71
2023/04/12 10:49:15;;;;;;;1.90;1.70;;;11.10;99.90;;;;;;5010169;28;20464;-70
2023/04/12 10:52:08;;;;;;;1.40;1.30;;;11.10;99.90;;;;;;4995215;28;20471;-71
2023/04/12 10:54:35;;;;;;;1.87;1.50;;;11.20;99.90;;;;;;5006873;28;20465;-70
2023/04/12 10:57:05;;;;;;;2.73;1.47;;;11.20;99.90;;;;;;4993769;28;20473;-70
2023/04/12 10:59:58;;;;;;;1.20;1.10;;;11.30;99.90;;;;;;4991224;28;20440;-70
2023/04/12 11:02:24;;;;;;;1.40;1.30;;;11.30;99.90;;;;;;4998201;28;20455;-70
2023/04/12 11:05:09;;;;;;;1.77;1.30;;;11.30;99.90;;;;;;4994476;28;20544;-70
2023/04/12 11:07:52;;;;;;;1.70;1.03;;;11.40;99.90;;;;;;5008250;28;20452;-69
2023/04/12 11:10:37;;;;;;;1.53;1.30;;;11.40;99.90;;;;;;5010809;28;20486;-71
2023/04/12 11:13:07;;;;;;;2.93;1.60;;;11.40;99.90;;;;;;5007867;28;20547;-71
2023/04/12 11:15:33;;;;;;;2.20;1.63;;;11.40;99.90;;;;;;4993909;28;20523;-70
2023/04/12 11:17:59;;;;;;;2.53;2.00;;;11.40;99.90;;;;;;4994767;28;21255;-70
2023/04/12 11:20:26;;;;;;;2.03;1.70;;;11.50;99.90;;;;;;5010575;28;20236;-70
2023/04/12 11:22:53;;;;;;;1.30;1.20;;;11.50;99.90;;;;;;5009174;28;20471;-71
2023/04/12 11:25:20;;;;;;;1.93;1.73;;;11.60;99.90;;;;;;5009203;28;20506;-71
2023/04/12 11:27:53;;;;;;;2.47;1.47;;;11.60;99.90;;;;;;5006410;28;20539;-68
2023/04/12 11:30:19;;;;;;;0.90;0.90;;;11.60;99.90;;;;;;5005198;28;20235;-70
2023/04/12 11:32:46;;;;;;;1.33;1.00;;;11.70;99.90;;;;;;5011311;28;20449;-69
2023/04/12 11:35:14;;;;;;;0.73;0.70;;;11.70;99.90;;;;;;4994361;28;20464;-69
2023/04/12 11:37:40;;;;;;;1.20;0.83;;;11.80;99.90;;;;;;4992546;28;20444;-69
2023/04/12 11:40:08;;;;;;;1.60;1.03;;;11.80;99.90;;;;;;5011652;28;20494;-70
2023/04/12 11:42:34;;;;;;;0.83;0.83;;;11.90;99.90;;;;;;5007618;28;20687;-71
2023/04/12 11:45:00;;;;;;;1.30;1.07;;;12.00;99.90;;;;;;5009082;28;20479;-69
2023/04/12 11:47:26;;;;;;;0.97;0.97;;;12.00;99.90;;;;;;5006882;28;20468;-70
2023/04/12 11:49:57;;;;;;;1.43;1.07;;;12.00;99.90;;;;;;4996887;28;20233;-69
2023/04/12 11:52:32;;;;;;;2.70;1.30;;;12.00;99.90;;;;;;4991102;28;20498;-70
2023/04/12 11:55:05;;;;;;;1.50;1.40;;;12.20;99.90;;;;;;5008459;28;20485;-70
2023/04/12 11:57:31;;;;;;;1.40;1.30;;;12.20;99.90;;;;;;5000209;28;20463;-69
2023/04/12 12:00:00;;;;;;;4.50;3.43;;;12.30;99.90;;;;;;5009582;28;20463;-70
2023/04/12 12:02:26;;;;;;;11.63;7.50;;;12.30;99.90;;;;;;5002834;28;20460;-69
2023/04/12 12:04:54;;;;;;;36.00;20.77;;;12.30;99.90;;;;;;5009190;28;20459;-69
2023/04/12 12:07:21;;;;;;;25.53;15.70;;;12.40;99.90;;;;;;5008778;28;20461;-69
2023/04/12 12:09:48;;;;;;;10.60;7.43;;;12.40;99.90;;;;;;5009370;28;20466;-70
2023/04/12 12:12:15;;;;;;;8.93;6.50;;;12.50;99.90;;;;;;4993758;28;20465;-70
2023/04/12 12:14:43;;;;;;;9.20;6.43;;;12.50;99.90;;;;;;5002717;28;20461;-69
2023/04/12 12:17:10;;;;;;;5.20;3.93;;;12.50;99.90;;;;;;5007600;28;20474;-69
2023/04/12 12:19:38;;;;;;;3.47;3.17;;;12.60;99.90;;;;;;5007988;28;23367;-70
2023/04/12 12:22:17;;;;;;;2.37;2.23;;;12.60;99.90;;;;;;5003512;28;20598;-69
2023/04/12 12:24:48;;;;;;;1.73;1.63;;;12.50;99.90;;;;;;5001852;28;20449;-71
2023/04/12 12:27:29;;;;;;;2.20;1.40;;;12.50;99.90;;;;;;5008140;28;20492;-68
2023/04/12 12:29:55;;;;;;;1.17;1.00;;;12.50;99.90;;;;;;5010247;28;20833;-69
2023/04/12 12:32:22;;;;;;;2.40;1.00;;;12.50;99.90;;;;;;5009341;28;20476;-70
2023/04/12 12:34:55;;;;;;;1.33;1.20;;;12.50;99.90;;;;;;5006169;28;20229;-68
2023/04/12 12:37:28;;;;;;;1.10;1.00;;;12.50;99.90;;;;;;5010753;28;20461;-71
2023/04/12 12:40:12;;;;;;;0.83;0.83;;;12.50;99.90;;;;;;4991589;28;20449;-71
2023/04/12 12:42:58;;;;;;;2.33;2.13;;;12.40;99.90;;;;;;5009104;28;20520;-71
2023/04/12 12:45:26;;;;;;;1.00;0.90;;;12.40;99.90;;;;;;4987844;28;20938;-71
2023/04/12 12:47:57;;;;;;;0.70;0.70;;;12.40;99.90;;;;;;5007088;28;20493;-70
2023/04/12 12:50:30;;;;;;;0.73;0.73;;;12.50;99.90;;;;;;5009118;28;20464;-70
2023/04/12 12:52:56;;;;;;;4.73;1.40;;;12.40;99.90;;;;;;5007754;28;20488;-70
2023/04/12 12:55:23;;;;;;;0.97;0.80;;;12.40;99.90;;;;;;5008690;28;20454;-70
2023/04/12 12:57:51;;;;;;;0.90;0.90;;;12.40;99.90;;;;;;5007670;28;20452;-69
2023/04/12 13:00:19;;;;;;;0.87;0.70;;;12.40;99.90;;;;;;5009901;28;20491;-70